Time;durP1;ratioP1;P1;durP2;ratioP2;P2;SDS_P1;SDS_P2;PMS_P1;PMS_P2;Temp;Humidity;BMP_temperature;BMP_pressure;BME280_temperature;BME280_humidity;BME280_pressure;Samples;Min_cycle;Max_cycle;Signal;HPM_P1;HPM_P2
2023/04/17 00:02:17;;;;;;;0.70;0.70;;;17.30;66.70;;;;;;5026064;28;20052;-76
2023/04/17 00:04:44;;;;;;;0.50;0.50;;;17.40;66.80;;;;;;5044008;28;20052;-76
2023/04/17 00:07:10;;;;;;;0.60;0.60;;;17.30;66.70;;;;;;5020768;28;20127;-76
2023/04/17 00:09:35;;;;;;;0.80;0.80;;;17.30;66.70;;;;;;5074761;28;20263;-76
2023/04/17 00:12:01;;;;;;;1.10;0.45;;;17.30;66.80;;;;;;5041091;28;20033;-76
2023/04/17 00:14:26;;;;;;;0.55;0.50;;;17.30;66.80;;;;;;5012004;28;20049;-76
2023/04/17 00:16:52;;;;;;;0.82;0.70;;;17.30;66.70;;;;;;5027709;28;20045;-76
2023/04/17 00:19:17;;;;;;;2.47;0.60;;;17.30;66.80;;;;;;5046002;28;20072;-76
2023/04/17 00:21:43;;;;;;;0.60;0.60;;;17.30;66.80;;;;;;5045823;28;20514;-76
2023/04/17 00:24:09;;;;;;;0.75;0.50;;;17.30;66.80;;;;;;5032311;28;20045;-76
2023/04/17 00:26:34;;;;;;;1.20;0.60;;;17.30;66.80;;;;;;5043231;28;20040;-76
2023/04/17 00:29:00;;;;;;;0.50;0.50;;;17.30;66.90;;;;;;5035391;28;20029;-76
2023/04/17 00:31:26;;;;;;;1.27;0.50;;;17.30;66.80;;;;;;5033458;28;20045;-76
2023/04/17 00:33:51;;;;;;;0.40;0.40;;;17.30;66.90;;;;;;5026367;28;20059;-76
2023/04/17 00:36:17;;;;;;;0.68;0.68;;;17.30;66.90;;;;;;5044706;28;20040;-76
2023/04/17 00:38:43;;;;;;;0.60;0.60;;;17.30;67.60;;;;;;5045950;28;20398;-76
2023/04/17 00:41:08;;;;;;;0.43;0.43;;;17.30;66.90;;;;;;5062658;28;20135;-76
2023/04/17 00:43:34;;;;;;;0.73;0.50;;;17.30;66.90;;;;;;5063235;28;20498;-76
2023/04/17 00:46:00;;;;;;;1.10;0.65;;;17.30;66.80;;;;;;5061688;28;20048;-76
2023/04/17 00:48:25;;;;;;;0.50;0.50;;;17.30;66.80;;;;;;5046579;28;20124;-75
2023/04/17 00:50:51;;;;;;;0.45;0.45;;;17.30;67.00;;;;;;5072263;28;20068;-76
2023/04/17 00:53:16;;;;;;;0.60;0.60;;;17.30;66.90;;;;;;5031128;28;20056;-76
2023/04/17 00:55:42;;;;;;;0.90;0.50;;;17.30;67.70;;;;;;5047923;28;20510;-76
2023/04/17 00:58:08;;;;;;;1.15;0.60;;;17.30;66.90;;;;;;5030197;28;20044;-76
2023/04/17 01:00:34;;;;;;;0.50;0.50;;;17.20;66.90;;;;;;5045355;28;20067;-76
2023/04/17 01:03:00;;;;;;;0.63;0.63;;;17.20;66.80;;;;;;5058141;28;20052;-76
2023/04/17 01:05:26;;;;;;;0.50;0.50;;;17.30;66.80;;;;;;5064905;28;20056;-76
2023/04/17 01:07:52;;;;;;;0.60;0.60;;;17.30;67.00;;;;;;5016183;28;20037;-76
2023/04/17 01:10:18;;;;;;;0.35;0.35;;;17.20;66.90;;;;;;5040450;28;20572;-76
2023/04/17 01:12:47;;;;;;;0.43;0.43;;;17.20;66.90;;;;;;5046527;28;20120;-76
2023/04/17 01:15:13;;;;;;;1.30;0.60;;;17.20;67.00;;;;;;5043890;28;20049;-76
2023/04/17 01:17:39;;;;;;;0.50;0.50;;;17.20;66.90;;;;;;5025316;28;20119;-76
2023/04/17 01:20:09;;;;;;;0.40;0.40;;;17.20;66.80;;;;;;5024498;28;20386;-76
2023/04/17 01:22:35;;;;;;;0.75;0.70;;;17.20;66.90;;;;;;5040006;28;20580;-76
2023/04/17 01:25:01;;;;;;;0.47;0.47;;;17.20;66.90;;;;;;5025193;28;20036;-77
2023/04/17 01:27:26;;;;;;;0.40;0.40;;;17.20;66.90;;;;;;5025161;28;20152;-76
2023/04/17 01:29:52;;;;;;;0.73;0.73;;;17.20;66.90;;;;;;5057150;28;20048;-76
2023/04/17 01:32:18;;;;;;;0.52;0.52;;;17.20;67.00;;;;;;5042185;28;20052;-76
2023/04/17 01:34:43;;;;;;;0.63;0.63;;;17.20;67.00;;;;;;5030189;28;20120;-76
2023/04/17 01:37:09;;;;;;;0.80;0.80;;;17.20;66.90;;;;;;5027934;28;20043;-76
2023/04/17 01:39:35;;;;;;;0.50;0.50;;;17.20;67.00;;;;;;5048467;28;20080;-76
2023/04/17 01:42:00;;;;;;;0.30;0.30;;;17.20;66.90;;;;;;5063021;28;20139;-76
2023/04/17 01:44:26;;;;;;;0.60;0.60;;;17.20;66.90;;;;;;5025319;28;20037;-76
2023/04/17 01:46:51;;;;;;;0.50;0.50;;;17.20;67.00;;;;;;5017646;28;20061;-76
2023/04/17 01:49:17;;;;;;;0.40;0.40;;;17.20;66.90;;;;;;5041801;28;20482;-76
2023/04/17 01:51:43;;;;;;;0.32;0.32;;;17.20;66.90;;;;;;5045812;28;20136;-76
2023/04/17 01:54:08;;;;;;;0.40;0.40;;;17.20;66.90;;;;;;5026070;28;20055;-76
2023/04/17 01:56:34;;;;;;;1.85;0.47;;;17.20;66.90;;;;;;5026921;28;20044;-76
2023/04/17 01:58:59;;;;;;;1.65;0.63;;;17.20;66.80;;;;;;5025968;28;20036;-76
2023/04/17 02:01:25;;;;;;;0.40;0.40;;;17.10;66.80;;;;;;5046252;28;20163;-76
2023/04/17 02:03:50;;;;;;;0.50;0.50;;;17.20;66.90;;;;;;5030633;28;20062;-76
2023/04/17 02:06:16;;;;;;;0.60;0.60;;;17.10;66.80;;;;;;5028144;28;20037;-76
2023/04/17 02:08:41;;;;;;;0.40;0.40;;;17.20;66.80;;;;;;5061325;28;20403;-76
2023/04/17 02:11:08;;;;;;;0.52;0.52;;;17.20;66.80;;;;;;5056038;28;20033;-76
2023/04/17 02:13:34;;;;;;;0.60;0.60;;;17.20;66.80;;;;;;5045789;28;20524;-75
2023/04/17 02:16:00;;;;;;;0.55;0.50;;;17.20;66.70;;;;;;5055999;28;20490;-76
2023/04/17 02:18:25;;;;;;;0.43;0.43;;;17.10;66.70;;;;;;5043738;28;20553;-76
2023/04/17 02:20:51;;;;;;;0.40;0.40;;;17.20;66.80;;;;;;5022411;28;20465;-76
2023/04/17 02:23:16;;;;;;;0.80;0.50;;;17.10;66.80;;;;;;5031667;28;20057;-75
2023/04/17 02:25:42;;;;;;;0.40;0.40;;;17.20;66.80;;;;;;5044214;28;20108;-75
2023/04/17 02:28:07;;;;;;;0.40;0.40;;;17.20;66.70;;;;;;5056469;28;20025;-76
2023/04/17 02:30:33;;;;;;;0.30;0.30;;;17.10;66.70;;;;;;5036407;28;20094;-75
2023/04/17 02:32:59;;;;;;;0.35;0.20;;;17.10;66.70;;;;;;5049736;28;20111;-76
2023/04/17 02:35:26;;;;;;;0.32;0.32;;;17.10;66.70;;;;;;5050108;28;20044;-76
2023/04/17 02:37:52;;;;;;;0.50;0.50;;;17.10;66.70;;;;;;5044828;28;20507;-75
2023/04/17 02:40:18;;;;;;;0.30;0.30;;;17.10;66.70;;;;;;5058442;28;20605;-75
2023/04/17 02:42:43;;;;;;;0.50;0.50;;;17.10;66.70;;;;;;5052673;28;20580;-75
2023/04/17 02:45:09;;;;;;;3.50;0.88;;;17.10;66.60;;;;;;5051189;28;20155;-77
2023/04/17 02:47:35;;;;;;;0.40;0.40;;;17.10;66.60;;;;;;5015574;28;20048;-76
2023/04/17 02:50:01;;;;;;;0.65;0.65;;;17.10;66.60;;;;;;5050916;28;20056;-77
2023/04/17 02:52:28;;;;;;;0.38;0.38;;;17.10;66.60;;;;;;5049574;28;20582;-76
2023/04/17 02:54:53;;;;;;;0.40;0.40;;;17.10;66.60;;;;;;5031889;28;20056;-76
2023/04/17 02:57:19;;;;;;;0.30;0.30;;;17.10;66.60;;;;;;5023417;28;20037;-76
2023/04/17 02:59:45;;;;;;;0.40;0.40;;;17.10;66.60;;;;;;5064642;28;20533;-76
2023/04/17 03:02:13;;;;;;;0.22;0.22;;;17.10;66.60;;;;;;5061557;28;20284;-76
2023/04/17 03:04:39;;;;;;;0.50;0.50;;;17.10;66.60;;;;;;5051636;28;20045;-76
2023/04/17 03:07:05;;;;;;;0.40;0.40;;;17.10;66.60;;;;;;5068975;28;20059;-77
2023/04/17 03:09:32;;;;;;;0.38;0.35;;;17.10;66.50;;;;;;5063599;28;20036;-76
2023/04/17 03:11:57;;;;;;;0.30;0.30;;;17.10;66.50;;;;;;5061591;28;20107;-76
2023/04/17 03:14:23;;;;;;;0.25;0.25;;;17.10;66.60;;;;;;5069366;28;20036;-76
2023/04/17 03:16:48;;;;;;;0.30;0.30;;;17.10;67.30;;;;;;5034173;28;20291;-76
2023/04/17 03:19:14;;;;;;;0.40;0.40;;;17.10;66.60;;;;;;5034563;28;20040;-77
2023/04/17 03:21:40;;;;;;;0.32;0.32;;;17.10;66.50;;;;;;5051931;28;20047;-76
2023/04/17 03:24:05;;;;;;;0.22;0.22;;;17.10;67.30;;;;;;5080761;28;20421;-77
2023/04/17 03:26:31;;;;;;;0.30;0.30;;;17.10;66.50;;;;;;5046004;28;20045;-76
2023/04/17 03:28:56;;;;;;;0.40;0.40;;;17.10;66.50;;;;;;5047286;28;20056;-76
2023/04/17 03:31:24;;;;;;;0.35;0.35;;;17.10;66.50;;;;;;5045182;28;20865;-76
2023/04/17 03:33:50;;;;;;;0.30;0.30;;;17.10;66.50;;;;;;5048802;28;20510;-76
2023/04/17 03:36:16;;;;;;;0.25;0.25;;;17.10;66.60;;;;;;5061501;28;20037;-76
2023/04/17 03:38:42;;;;;;;0.50;0.40;;;17.10;66.50;;;;;;5028062;28;20053;-76
2023/04/17 03:41:07;;;;;;;0.40;0.40;;;17.10;66.50;;;;;;5044475;28;20076;-77
2023/04/17 03:43:33;;;;;;;0.30;0.30;;;17.10;66.50;;;;;;5029489;28;20049;-76
2023/04/17 03:45:58;;;;;;;0.28;0.28;;;17.10;66.50;;;;;;5045652;28;20041;-76
2023/04/17 03:48:24;;;;;;;0.22;0.22;;;17.00;66.40;;;;;;5045040;28;20060;-76
2023/04/17 03:50:50;;;;;;;0.30;0.30;;;17.00;66.40;;;;;;5029561;28;20044;-76
2023/04/17 03:53:16;;;;;;;0.30;0.30;;;17.10;66.50;;;;;;5011828;28;20045;-76
2023/04/17 03:55:41;;;;;;;0.30;0.30;;;17.10;66.50;;;;;;5011197;28;20407;-76
2023/04/17 03:58:07;;;;;;;0.45;0.40;;;17.00;66.50;;;;;;5033499;28;20052;-77
2023/04/17 04:00:32;;;;;;;0.30;0.30;;;17.00;66.50;;;;;;5043103;28;20056;-76
2023/04/17 04:02:58;;;;;;;0.38;0.38;;;17.10;66.20;;;;;;5026891;28;20519;-76
2023/04/17 04:05:23;;;;;;;0.40;0.40;;;17.10;66.30;;;;;;5051787;28;20052;-76
2023/04/17 04:07:49;;;;;;;0.45;0.45;;;17.10;66.40;;;;;;5026041;28;20055;-76
2023/04/17 04:10:14;;;;;;;0.25;0.25;;;17.00;66.40;;;;;;5045168;28;20041;-76
2023/04/17 04:12:40;;;;;;;0.40;0.40;;;17.00;66.40;;;;;;5046486;28;20497;-76
2023/04/17 04:15:06;;;;;;;0.43;0.43;;;17.00;66.40;;;;;;5039769;28;20048;-77
2023/04/17 04:17:32;;;;;;;0.90;0.30;;;17.00;66.50;;;;;;5024593;28;20066;-76
2023/04/17 04:19:58;;;;;;;0.40;0.35;;;17.00;66.40;;;;;;5045700;28;20763;-76
2023/04/17 04:22:24;;;;;;;0.57;0.30;;;17.00;66.50;;;;;;5042576;28;20048;-76
2023/04/17 04:24:52;;;;;;;0.30;0.30;;;17.00;66.50;;;;;;5045887;28;20124;-76
2023/04/17 04:27:21;;;;;;;0.22;0.22;;;17.00;66.50;;;;;;5045293;28;20051;-76
2023/04/17 04:29:47;;;;;;;0.13;0.13;;;17.00;66.50;;;;;;5045295;28;20044;-76
2023/04/17 04:32:14;;;;;;;0.30;0.30;;;17.00;66.50;;;;;;5038498;28;20099;-77
2023/04/17 04:34:40;;;;;;;0.30;0.30;;;17.00;66.50;;;;;;5029061;28;20499;-76
2023/04/17 04:37:06;;;;;;;0.35;0.35;;;17.00;66.70;;;;;;5041558;28;20037;-76
2023/04/17 04:39:32;;;;;;;0.30;0.30;;;17.00;66.50;;;;;;5031855;28;20049;-76
2023/04/17 04:42:05;;;;;;;0.28;0.28;;;17.00;66.50;;;;;;5031145;28;20794;-76
2023/04/17 04:44:30;;;;;;;0.40;0.40;;;17.00;66.40;;;;;;5026491;28;20044;-76
2023/04/17 04:46:56;;;;;;;0.30;0.30;;;17.00;66.50;;;;;;5028049;28;20030;-76
2023/04/17 04:49:21;;;;;;;0.20;0.20;;;17.00;66.40;;;;;;5043644;28;20407;-77
2023/04/17 04:51:47;;;;;;;0.38;0.38;;;17.00;66.40;;;;;;5040327;28;20045;-76
2023/04/17 04:54:13;;;;;;;0.30;0.30;;;16.90;66.40;;;;;;5045060;28;20057;-76
2023/04/17 04:56:38;;;;;;;0.20;0.20;;;16.90;67.20;;;;;;5026948;28;20048;-76
2023/04/17 04:59:04;;;;;;;0.40;0.30;;;16.90;66.40;;;;;;5040244;28;20552;-76
2023/04/17 05:04:05;;;;;;;0.30;0.30;;;16.90;66.40;;;;;;4981936;28;20035;-73
2023/04/17 05:06:31;;;;;;;0.57;0.50;;;17.00;66.40;;;;;;5001643;28;20022;-76
2023/04/17 05:08:56;;;;;;;0.63;0.40;;;17.00;66.60;;;;;;4952491;28;20496;-75
2023/04/17 05:11:22;;;;;;;0.55;0.55;;;17.00;66.30;;;;;;4988125;28;20022;-75
2023/04/17 05:13:47;;;;;;;0.40;0.40;;;16.90;66.20;;;;;;4989243;28;20030;-75
2023/04/17 05:16:13;;;;;;;0.65;0.40;;;17.00;66.50;;;;;;4974577;28;20101;-76
2023/04/17 05:18:38;;;;;;;1.42;0.40;;;17.10;66.20;;;;;;4951748;28;20118;-75
2023/04/17 05:21:04;;;;;;;0.65;0.50;;;17.00;67.10;;;;;;4974415;28;20029;-76
2023/04/17 05:23:30;;;;;;;0.50;0.50;;;17.10;66.50;;;;;;4958832;28;20042;-75
2023/04/17 05:25:55;;;;;;;0.65;0.40;;;17.00;66.80;;;;;;4963905;28;20053;-76
2023/04/17 05:28:21;;;;;;;6.75;0.70;;;17.00;66.70;;;;;;4993698;28;20022;-75
2023/04/17 05:30:47;;;;;;;0.63;0.52;;;17.00;66.60;;;;;;5005139;28;20499;-75
2023/04/17 05:33:12;;;;;;;0.80;0.45;;;17.10;67.40;;;;;;4948097;28;20049;-75
2023/04/17 05:35:38;;;;;;;0.40;0.40;;;17.10;66.50;;;;;;4991962;28;20495;-77
2023/04/17 05:38:06;;;;;;;1.58;0.50;;;17.00;66.40;;;;;;4955908;28;20174;-76
2023/04/17 05:40:32;;;;;;;0.90;0.40;;;17.10;66.40;;;;;;5006653;28;20013;-77
2023/04/17 05:43:05;;;;;;;0.50;0.50;;;17.10;66.80;;;;;;4973791;28;20414;-75
2023/04/17 05:45:31;;;;;;;0.38;0.35;;;17.10;66.50;;;;;;4970850;28;20049;-77
2023/04/17 05:47:56;;;;;;;2.22;0.43;;;17.00;66.40;;;;;;4989140;28;20487;-75
2023/04/17 05:50:22;;;;;;;1.33;0.60;;;17.10;66.60;;;;;;4990702;28;20026;-75
2023/04/17 05:52:47;;;;;;;0.40;0.40;;;17.00;66.30;;;;;;4991068;28;20033;-76
2023/04/17 05:55:13;;;;;;;0.60;0.60;;;17.10;66.90;;;;;;4959039;28;20487;-74
2023/04/17 05:57:38;;;;;;;0.65;0.65;;;17.10;66.90;;;;;;4991264;28;20026;-75
2023/04/17 06:00:09;;;;;;;0.40;0.40;;;17.10;66.80;;;;;;4990737;28;20046;-76
2023/04/17 06:02:36;;;;;;;0.40;0.40;;;17.10;66.80;;;;;;4960897;28;20042;-75
2023/04/17 06:05:05;;;;;;;1.00;0.65;;;17.00;66.90;;;;;;4986691;28;20026;-76
2023/04/17 06:07:32;;;;;;;0.50;0.50;;;17.00;67.10;;;;;;4974355;28;20027;-75
2023/04/17 06:09:58;;;;;;;0.63;0.47;;;17.00;66.80;;;;;;4974369;28;20479;-77
2023/04/17 06:12:23;;;;;;;0.50;0.40;;;17.00;67.00;;;;;;4975109;28;20105;-78
2023/04/17 06:14:49;;;;;;;0.70;0.40;;;17.10;66.90;;;;;;4974120;28;20125;-78
2023/04/17 06:17:15;;;;;;;0.50;0.50;;;17.10;66.90;;;;;;4989354;28;20384;-77
2023/04/17 06:19:40;;;;;;;0.50;0.50;;;17.10;67.20;;;;;;4990962;28;20018;-77
2023/04/17 06:22:06;;;;;;;0.43;0.40;;;17.00;66.90;;;;;;4991177;28;20081;-79
2023/04/17 06:24:31;;;;;;;0.50;0.50;;;17.00;67.00;;;;;;4961721;28;20027;-79
2023/04/17 06:26:57;;;;;;;0.50;0.50;;;17.10;67.20;;;;;;4991816;28;20499;-78
2023/04/17 06:29:23;;;;;;;0.40;0.40;;;17.10;67.30;;;;;;4988912;28;20041;-76
2023/04/17 06:31:48;;;;;;;0.30;0.30;;;17.10;67.00;;;;;;4986370;28;20035;-77
2023/04/17 06:34:14;;;;;;;0.40;0.40;;;17.10;67.00;;;;;;4990736;28;20105;-76
2023/04/17 06:36:40;;;;;;;3.92;0.50;;;17.10;66.80;;;;;;4990404;28;20054;-77
2023/04/17 06:39:05;;;;;;;1.52;0.40;;;17.10;67.10;;;;;;4987546;28;20034;-77
2023/04/17 06:41:31;;;;;;;1.67;0.43;;;17.10;68.00;;;;;;4986229;28;20041;-79
2023/04/17 06:43:56;;;;;;;0.52;0.45;;;17.10;67.80;;;;;;4980237;28;20030;-79
2023/04/17 06:46:22;;;;;;;0.40;0.40;;;17.10;67.00;;;;;;4989077;28;20379;-79
2023/04/17 06:48:51;;;;;;;0.40;0.40;;;17.10;67.00;;;;;;4965002;28;20035;-79
2023/04/17 06:51:19;;;;;;;1.65;0.50;;;17.10;67.10;;;;;;4984747;28;20022;-80
2023/04/17 06:53:46;;;;;;;2.28;0.60;;;17.10;67.20;;;;;;4987387;28;20035;-80
2023/04/17 06:56:11;;;;;;;0.57;0.57;;;17.10;67.20;;;;;;4996060;28;20026;-79
2023/04/17 06:58:42;;;;;;;0.90;0.40;;;17.10;67.20;;;;;;4985861;28;20042;-79
2023/04/17 07:01:11;;;;;;;0.73;0.52;;;17.10;67.10;;;;;;4988603;28;20025;-79
2023/04/17 07:03:40;;;;;;;0.60;0.60;;;17.00;67.80;;;;;;4987540;28;20037;-78
2023/04/17 07:06:06;;;;;;;0.38;0.38;;;17.10;67.10;;;;;;4984370;28;20023;-77
2023/04/17 07:08:32;;;;;;;1.40;0.70;;;17.10;67.00;;;;;;4990205;28;20112;-76
2023/04/17 07:10:57;;;;;;;1.10;0.50;;;17.20;67.10;;;;;;4990405;28;20110;-76
2023/04/17 07:13:23;;;;;;;0.47;0.47;;;17.10;66.90;;;;;;4975644;28;20109;-77
2023/04/17 07:15:55;;;;;;;3.45;0.80;;;17.20;66.90;;;;;;4994122;28;20430;-78
2023/04/17 07:18:21;;;;;;;2.17;0.60;;;17.20;67.00;;;;;;4976372;28;20033;-76
2023/04/17 07:20:47;;;;;;;0.50;0.50;;;17.20;67.00;;;;;;4961671;28;20034;-77
2023/04/17 07:23:13;;;;;;;0.60;0.60;;;17.30;66.80;;;;;;4977054;28;20037;-74
2023/04/17 07:25:38;;;;;;;0.52;0.52;;;17.20;67.00;;;;;;4994363;28;20030;-75
2023/04/17 07:28:04;;;;;;;0.52;0.50;;;17.20;67.20;;;;;;4964747;28;20014;-75
2023/04/17 07:30:30;;;;;;;0.60;0.60;;;17.30;67.20;;;;;;4992557;28;20073;-75
2023/04/17 07:32:55;;;;;;;1.73;0.50;;;17.20;67.10;;;;;;4977330;28;20026;-75
2023/04/17 07:35:21;;;;;;;1.85;0.80;;;17.20;67.40;;;;;;4993752;28;20138;-75
2023/04/17 07:37:47;;;;;;;3.22;1.02;;;17.20;67.70;;;;;;4993752;28;20118;-75
2023/04/17 07:40:13;;;;;;;1.35;0.80;;;17.20;67.50;;;;;;4994357;28;20097;-75
2023/04/17 07:42:39;;;;;;;1.42;0.73;;;17.20;67.00;;;;;;4993244;28;20033;-75
2023/04/17 07:45:05;;;;;;;0.90;0.70;;;17.20;67.20;;;;;;4994126;28;20026;-75
2023/04/17 07:47:31;;;;;;;0.93;0.70;;;17.20;67.20;;;;;;4993249;28;20018;-75
2023/04/17 07:49:56;;;;;;;1.33;0.60;;;17.20;67.00;;;;;;4993410;28;20038;-75
2023/04/17 07:52:22;;;;;;;0.75;0.75;;;17.20;67.10;;;;;;4994258;28;20038;-75
2023/04/17 07:54:47;;;;;;;1.17;0.55;;;17.20;66.90;;;;;;4993330;28;20022;-75
2023/04/17 07:57:14;;;;;;;2.65;0.60;;;17.30;67.00;;;;;;4993417;28;20034;-75
2023/04/17 07:59:40;;;;;;;1.05;0.80;;;17.30;67.50;;;;;;4967317;28;20097;-75
2023/04/17 08:02:06;;;;;;;0.85;0.50;;;17.30;67.10;;;;;;4992865;28;20039;-75
2023/04/17 08:04:32;;;;;;;0.68;0.55;;;17.30;67.10;;;;;;4993757;28;20021;-75
2023/04/17 08:06:58;;;;;;;2.00;0.90;;;17.30;67.80;;;;;;4995472;28;20022;-75
2023/04/17 08:09:23;;;;;;;1.90;0.77;;;17.30;67.10;;;;;;4995278;28;20031;-75
2023/04/17 08:11:49;;;;;;;0.52;0.50;;;17.30;66.90;;;;;;4993934;28;20026;-75
2023/04/17 08:14:18;;;;;;;0.68;0.68;;;17.40;66.90;;;;;;4993259;28;20046;-75
2023/04/17 08:16:47;;;;;;;1.13;0.88;;;17.40;66.90;;;;;;4993076;28;20026;-75
2023/04/17 08:19:12;;;;;;;0.50;0.50;;;17.40;66.80;;;;;;4975945;28;20049;-75
2023/04/17 08:21:38;;;;;;;0.82;0.40;;;17.40;66.70;;;;;;4993073;28;20027;-75
2023/04/17 08:24:04;;;;;;;0.63;0.60;;;17.40;66.70;;;;;;4992311;28;20543;-75
2023/04/17 08:26:30;;;;;;;0.60;0.60;;;17.40;66.70;;;;;;4993177;28;20029;-75
2023/04/17 08:29:00;;;;;;;0.63;0.43;;;17.50;66.70;;;;;;4992421;28;20062;-75
2023/04/17 08:31:26;;;;;;;1.27;0.47;;;17.50;66.70;;;;;;4977662;28;20447;-75
2023/04/17 08:33:52;;;;;;;0.90;0.70;;;17.50;66.70;;;;;;4975080;28;20089;-75
2023/04/17 08:36:18;;;;;;;0.60;0.60;;;17.50;66.70;;;;;;4975401;28;20031;-74
2023/04/17 08:38:44;;;;;;;0.50;0.50;;;17.60;66.80;;;;;;4975654;28;20054;-75
2023/04/17 08:41:11;;;;;;;0.77;0.50;;;17.60;66.70;;;;;;4963561;28;20026;-75
2023/04/17 08:43:37;;;;;;;0.85;0.57;;;17.60;66.70;;;;;;4959584;28;20049;-75
2023/04/17 08:46:03;;;;;;;0.52;0.40;;;17.60;66.40;;;;;;4959834;28;20046;-75
2023/04/17 08:48:29;;;;;;;0.90;0.60;;;17.70;66.40;;;;;;4942910;28;20018;-75
2023/04/17 08:50:54;;;;;;;0.80;0.55;;;17.70;66.20;;;;;;4975899;28;20510;-75
2023/04/17 08:53:20;;;;;;;0.98;0.50;;;17.70;66.10;;;;;;4992294;28;20034;-75
2023/04/17 08:55:46;;;;;;;0.63;0.50;;;17.80;66.10;;;;;;4974569;28;20054;-75
2023/04/17 08:58:13;;;;;;;0.47;0.43;;;17.70;65.90;;;;;;4993184;28;20482;-75
2023/04/17 09:00:40;;;;;;;1.40;0.50;;;17.80;65.90;;;;;;4979437;28;20061;-75
2023/04/17 09:03:07;;;;;;;0.70;0.70;;;17.80;65.90;;;;;;4959099;28;20046;-75
2023/04/17 09:05:33;;;;;;;1.33;0.55;;;17.80;65.80;;;;;;4975901;28;20145;-75
2023/04/17 09:08:12;;;;;;;0.60;0.60;;;17.80;65.70;;;;;;4958332;28;20097;-75
2023/04/17 09:10:45;;;;;;;0.20;0.20;;;17.80;65.60;;;;;;4951296;28;20038;-75
2023/04/17 09:13:13;;;;;;;0.50;0.50;;;17.90;65.60;;;;;;4949444;28;20076;-75
2023/04/17 09:15:39;;;;;;;0.77;0.70;;;17.80;66.30;;;;;;4992162;28;20511;-75
2023/04/17 09:18:04;;;;;;;0.50;0.45;;;17.90;66.00;;;;;;4974701;28;20066;-75
2023/04/17 09:20:31;;;;;;;0.50;0.50;;;17.90;67.00;;;;;;4992361;28;20034;-75
2023/04/17 09:23:02;;;;;;;0.57;0.57;;;17.90;67.80;;;;;;4953505;28;20041;-75
2023/04/17 09:25:27;;;;;;;0.50;0.50;;;17.90;67.90;;;;;;4959628;28;20502;-75
2023/04/17 09:27:54;;;;;;;0.68;0.65;;;17.90;67.70;;;;;;4990928;28;20114;-75
2023/04/17 09:30:19;;;;;;;3.13;0.70;;;17.90;67.70;;;;;;4991389;28;20058;-75
2023/04/17 09:32:45;;;;;;;0.80;0.80;;;17.90;67.60;;;;;;4992429;28;20064;-75
2023/04/17 09:35:20;;;;;;;0.52;0.52;;;17.90;67.60;;;;;;4991049;28;20031;-75
2023/04/17 09:37:53;;;;;;;1.52;0.40;;;17.90;67.50;;;;;;4959285;28;20184;-75
2023/04/17 09:40:19;;;;;;;0.40;0.40;;;18.00;67.30;;;;;;4992445;28;20109;-75
2023/04/17 09:43:02;;;;;;;0.50;0.50;;;18.00;67.20;;;;;;4991499;28;20033;-75
2023/04/17 09:45:38;;;;;;;0.40;0.40;;;17.90;67.10;;;;;;4991867;28;20406;-75
2023/04/17 09:48:11;;;;;;;0.57;0.47;;;18.00;67.10;;;;;;4975863;28;20450;-75
2023/04/17 09:50:37;;;;;;;0.50;0.50;;;18.00;66.80;;;;;;4992065;28;20549;-75
2023/04/17 09:53:03;;;;;;;0.60;0.40;;;18.00;66.80;;;;;;4973648;28;20058;-75
2023/04/17 09:55:30;;;;;;;0.32;0.32;;;18.00;66.70;;;;;;4992221;28;20089;-75
2023/04/17 09:57:56;;;;;;;0.43;0.40;;;18.00;66.60;;;;;;4991090;28;20414;-75
2023/04/17 10:00:25;;;;;;;0.60;0.60;;;18.00;66.50;;;;;;4973794;28;20037;-75
2023/04/17 10:02:51;;;;;;;0.40;0.40;;;18.00;66.50;;;;;;4991611;28;20053;-75
2023/04/17 10:05:17;;;;;;;0.50;0.50;;;18.00;66.40;;;;;;4963605;28;20030;-75
2023/04/17 10:07:43;;;;;;;0.55;0.43;;;18.00;66.30;;;;;;4990988;28;20104;-75
2023/04/17 10:10:10;;;;;;;0.55;0.55;;;18.00;66.30;;;;;;4963597;28;20510;-75
2023/04/17 10:12:37;;;;;;;0.60;0.60;;;18.00;66.20;;;;;;4982889;28;20510;-75
2023/04/17 10:15:03;;;;;;;0.47;0.40;;;18.00;66.00;;;;;;4951615;28;20060;-75
2023/04/17 10:17:33;;;;;;;0.60;0.60;;;18.00;65.80;;;;;;4957799;28;20698;-75
2023/04/17 10:20:14;;;;;;;0.50;0.50;;;18.10;65.80;;;;;;4962421;28;20065;-75
2023/04/17 10:22:40;;;;;;;0.47;0.47;;;18.10;65.70;;;;;;5002715;28;20108;-75
2023/04/17 10:25:11;;;;;;;1.15;0.70;;;18.20;65.50;;;;;;4991357;28;20480;-75
2023/04/17 10:27:40;;;;;;;0.35;0.35;;;18.20;65.50;;;;;;4981574;28;20022;-75
2023/04/17 10:30:11;;;;;;;0.40;0.40;;;18.20;65.30;;;;;;4991346;28;20506;-75
2023/04/17 10:32:40;;;;;;;0.45;0.40;;;18.20;65.30;;;;;;4960971;28;20041;-75
2023/04/17 10:35:29;;;;;;;0.20;0.20;;;18.20;65.20;;;;;;4956621;28;20022;-75
2023/04/17 10:38:02;;;;;;;0.32;0.32;;;18.20;65.20;;;;;;4990101;28;20120;-75
2023/04/17 10:40:34;;;;;;;0.32;0.32;;;18.20;65.10;;;;;;4962898;28;20078;-75
2023/04/17 10:45:51;;;;;;;0.38;0.38;;;18.20;65.00;;;;;;4974604;28;20392;-76
2023/04/17 10:48:45;;;;;;;1.33;0.40;;;18.20;64.90;;;;;;4993857;28;20080;-75
2023/04/17 10:51:23;;;;;;;0.43;0.40;;;18.20;64.80;;;;;;4987176;28;20042;-75
2023/04/17 10:53:54;;;;;;;0.60;0.60;;;18.20;64.80;;;;;;4995522;28;20026;-75
2023/04/17 10:56:37;;;;;;;0.50;0.40;;;18.30;64.80;;;;;;4976544;28;20041;-75
2023/04/17 10:59:10;;;;;;;0.28;0.28;;;18.30;64.70;;;;;;4980450;28;20041;-75
2023/04/17 11:01:56;;;;;;;0.55;0.43;;;18.30;64.70;;;;;;4977639;28;20447;-75
2023/04/17 11:04:29;;;;;;;1.30;0.30;;;18.30;64.70;;;;;;4976944;28;20384;-75
2023/04/17 11:06:55;;;;;;;0.38;0.38;;;18.30;64.60;;;;;;4994420;28;20030;-75
2023/04/17 11:09:22;;;;;;;0.35;0.30;;;18.30;64.60;;;;;;4981418;28;20105;-75
2023/04/17 11:11:48;;;;;;;0.20;0.20;;;18.30;64.50;;;;;;4978032;28;20026;-75
2023/04/17 11:14:15;;;;;;;0.40;0.20;;;18.30;64.50;;;;;;4954829;28;20031;-74
2023/04/17 11:16:41;;;;;;;0.22;0.22;;;18.30;64.50;;;;;;4971159;28;20034;-75
2023/04/17 11:19:12;;;;;;;0.30;0.30;;;18.30;64.40;;;;;;4993948;28;20077;-75
2023/04/17 11:21:51;;;;;;;0.40;0.40;;;18.30;64.40;;;;;;4967114;28;20022;-75
2023/04/17 11:24:25;;;;;;;0.50;0.50;;;18.30;64.50;;;;;;4993892;28;20061;-75
2023/04/17 11:26:51;;;;;;;0.30;0.30;;;18.30;64.50;;;;;;4994735;28;20391;-75
2023/04/17 11:29:20;;;;;;;0.30;0.30;;;18.30;64.50;;;;;;4980906;28;20037;-75
2023/04/17 11:31:46;;;;;;;0.30;0.30;;;18.30;64.60;;;;;;4976407;28;20085;-75
2023/04/17 11:34:12;;;;;;;1.23;0.25;;;18.30;64.60;;;;;;4994203;28;20030;-75
2023/04/17 11:36:38;;;;;;;0.30;0.30;;;18.30;64.50;;;;;;4957730;28;20040;-75
2023/04/17 11:39:04;;;;;;;0.55;0.40;;;18.30;64.50;;;;;;4994166;28;20030;-75
2023/04/17 11:41:38;;;;;;;0.60;0.32;;;18.30;64.40;;;;;;4994294;28;20158;-75
2023/04/17 11:44:08;;;;;;;0.30;0.30;;;18.30;64.40;;;;;;4991275;28;20648;-74
2023/04/17 11:46:33;;;;;;;0.43;0.30;;;18.30;64.40;;;;;;4994028;28;20169;-75
2023/04/17 11:48:59;;;;;;;0.30;0.30;;;18.40;64.40;;;;;;4993714;28;20554;-75
2023/04/17 11:51:25;;;;;;;0.40;0.40;;;18.30;64.30;;;;;;4993588;28;20023;-75
2023/04/17 11:53:51;;;;;;;0.30;0.30;;;18.30;64.30;;;;;;4994030;28;20038;-75
2023/04/17 11:56:17;;;;;;;0.50;0.40;;;18.30;64.30;;;;;;4993622;28;20030;-75
2023/04/17 11:58:46;;;;;;;1.20;0.40;;;18.40;64.40;;;;;;4992709;28;20077;-75
2023/04/17 12:01:12;;;;;;;0.65;0.30;;;18.30;64.30;;;;;;4991375;28;20123;-75
2023/04/17 12:03:37;;;;;;;0.88;0.50;;;18.40;64.30;;;;;;4992629;28;20515;-75
2023/04/17 12:06:05;;;;;;;0.30;0.30;;;18.40;64.30;;;;;;4993174;28;20462;-75
2023/04/17 12:08:39;;;;;;;0.30;0.30;;;18.40;64.20;;;;;;4976649;28;20022;-75
2023/04/17 12:11:05;;;;;;;0.22;0.22;;;18.40;64.30;;;;;;4993295;28;20041;-75
2023/04/17 12:13:32;;;;;;;0.50;0.20;;;18.40;64.20;;;;;;4993289;28;20018;-75
2023/04/17 12:15:57;;;;;;;0.30;0.30;;;18.40;64.30;;;;;;4992276;28;20030;-73
2023/04/17 12:18:23;;;;;;;0.50;0.30;;;18.40;64.10;;;;;;4992252;28;20072;-74
2023/04/17 12:20:49;;;;;;;0.85;0.40;;;18.40;63.30;;;;;;4993198;28;20117;-74
2023/04/17 12:23:14;;;;;;;1.38;0.40;;;18.40;63.20;;;;;;4993094;28;20411;-74
2023/04/17 12:25:40;;;;;;;0.40;0.40;;;18.40;63.30;;;;;;4993333;28;20023;-74
2023/04/17 12:28:05;;;;;;;0.40;0.40;;;18.40;63.60;;;;;;4992875;28;20259;-74
2023/04/17 12:30:34;;;;;;;0.40;0.40;;;18.40;63.60;;;;;;4993067;28;20097;-74
2023/04/17 12:33:00;;;;;;;0.40;0.40;;;18.40;63.70;;;;;;4992855;28;20034;-74
2023/04/17 12:35:26;;;;;;;0.20;0.20;;;18.40;63.80;;;;;;4993065;28;20356;-74
2023/04/17 12:37:51;;;;;;;0.63;0.30;;;18.40;63.90;;;;;;4959175;28;20330;-74
2023/04/17 12:40:18;;;;;;;0.20;0.20;;;18.40;63.80;;;;;;4976422;28;20026;-74
2023/04/17 12:42:44;;;;;;;0.30;0.30;;;18.40;64.60;;;;;;4975585;28;20031;-74
2023/04/17 12:45:10;;;;;;;0.32;0.30;;;18.40;63.90;;;;;;4992739;28;20529;-74
2023/04/17 12:47:36;;;;;;;0.28;0.28;;;18.40;63.90;;;;;;4992947;28;20391;-74
2023/04/17 12:50:01;;;;;;;0.20;0.20;;;18.40;64.00;;;;;;4979645;28;20022;-74
2023/04/17 12:52:27;;;;;;;0.40;0.40;;;18.40;64.10;;;;;;4993411;28;20391;-74